sensor_id;sensor_type;location;lat;lon;timestamp;P1;durP1;ratioP1;P2;durP2;ratioP2
56457;SDS011;42360;42.918;12.366;2024-03-02T00:01:03;2.42;;;2.22;;
56457;SDS011;42360;42.918;12.366;2024-03-02T00:03:29;2.72;;;2.20;;
56457;SDS011;42360;42.918;12.366;2024-03-02T00:05:54;3.53;;;2.85;;
56457;SDS011;42360;42.918;12.366;2024-03-02T00:08:23;2.42;;;2.20;;
56457;SDS011;42360;42.918;12.366;2024-03-02T00:10:56;2.80;;;2.38;;
56457;SDS011;42360;42.918;12.366;2024-03-02T00:13:22;2.72;;;2.50;;
56457;SDS011;42360;42.918;12.366;2024-03-02T00:15:48;2.85;;;2.30;;
56457;SDS011;42360;42.918;12.366;2024-03-02T00:18:21;3.10;;;2.80;;
56457;SDS011;42360;42.918;12.366;2024-03-02T00:20:54;4.13;;;3.08;;
56457;SDS011;42360;42.918;12.366;2024-03-02T00:23:21;3.33;;;3.03;;
56457;SDS011;42360;42.918;12.366;2024-03-02T00:25:47;3.17;;;2.88;;
56457;SDS011;42360;42.918;12.366;2024-03-02T00:28:16;3.55;;;3.08;;
56457;SDS011;42360;42.918;12.366;2024-03-02T00:33:28;2.72;;;2.53;;
56457;SDS011;42360;42.918;12.366;2024-03-02T00:35:56;2.83;;;2.58;;
56457;SDS011;42360;42.918;12.366;2024-03-02T00:38:21;2.83;;;2.63;;
56457;SDS011;42360;42.918;12.366;2024-03-02T00:40:47;3.08;;;2.55;;
56457;SDS011;42360;42.918;12.366;2024-03-02T00:46:00;3.13;;;2.55;;
56457;SDS011;42360;42.918;12.366;2024-03-02T00:48:25;4.88;;;3.13;;
56457;SDS011;42360;42.918;12.366;2024-03-02T00:50:52;3.53;;;2.92;;
56457;SDS011;42360;42.918;12.366;2024-03-02T00:53:17;3.45;;;2.78;;
56457;SDS011;42360;42.918;12.366;2024-03-02T00:55:48;3.83;;;2.75;;
56457;SDS011;42360;42.918;12.366;2024-03-02T00:58:14;4.05;;;3.08;;
56457;SDS011;42360;42.918;12.366;2024-03-02T01:00:39;3.70;;;3.05;;
56457;SDS011;42360;42.918;12.366;2024-03-02T01:03:05;3.65;;;2.15;;
56457;SDS011;42360;42.918;12.366;2024-03-02T01:05:30;2.70;;;2.50;;
56457;SDS011;42360;42.918;12.366;2024-03-02T01:07:56;3.05;;;2.75;;
56457;SDS011;42360;42.918;12.366;2024-03-02T01:10:21;2.90;;;2.35;;
56457;SDS011;42360;42.918;12.366;2024-03-02T01:12:46;2.70;;;2.50;;
56457;SDS011;42360;42.918;12.366;2024-03-02T01:15:13;2.70;;;2.50;;
56457;SDS011;42360;42.918;12.366;2024-03-02T01:17:38;2.78;;;2.47;;
56457;SDS011;42360;42.918;12.366;2024-03-02T01:20:04;3.75;;;2.80;;
56457;SDS011;42360;42.918;12.366;2024-03-02T01:22:30;3.60;;;2.80;;
56457;SDS011;42360;42.918;12.366;2024-03-02T01:24:55;3.03;;;2.47;;
56457;SDS011;42360;42.918;12.366;2024-03-02T01:27:21;3.65;;;2.72;;
56457;SDS011;42360;42.918;12.366;2024-03-02T01:29:46;2.75;;;2.22;;
56457;SDS011;42360;42.918;12.366;2024-03-02T01:32:12;3.45;;;2.53;;
56457;SDS011;42360;42.918;12.366;2024-03-02T01:34:37;2.70;;;2.50;;
56457;SDS011;42360;42.918;12.366;2024-03-02T01:37:03;3.72;;;2.58;;
56457;SDS011;42360;42.918;12.366;2024-03-02T01:39:28;2.70;;;2.50;;
56457;SDS011;42360;42.918;12.366;2024-03-02T01:41:54;4.10;;;3.70;;
56457;SDS011;42360;42.918;12.366;2024-03-02T01:44:19;3.90;;;3.42;;
56457;SDS011;42360;42.918;12.366;2024-03-02T01:46:44;4.38;;;3.97;;
56457;SDS011;42360;42.918;12.366;2024-03-02T01:49:10;5.60;;;4.18;;
56457;SDS011;42360;42.918;12.366;2024-03-02T01:51:35;3.92;;;3.63;;
56457;SDS011;42360;42.918;12.366;2024-03-02T01:54:01;4.05;;;3.65;;
56457;SDS011;42360;42.918;12.366;2024-03-02T01:56:26;4.00;;;3.45;;
56457;SDS011;42360;42.918;12.366;2024-03-02T01:58:52;4.28;;;3.42;;
56457;SDS011;42360;42.918;12.366;2024-03-02T02:01:17;5.10;;;3.50;;
56457;SDS011;42360;42.918;12.366;2024-03-02T02:03:43;4.93;;;3.30;;
56457;SDS011;42360;42.918;12.366;2024-03-02T02:06:09;4.68;;;2.83;;
56457;SDS011;42360;42.918;12.366;2024-03-02T02:08:36;3.92;;;2.92;;
56457;SDS011;42360;42.918;12.366;2024-03-02T02:11:02;3.78;;;3.10;;
56457;SDS011;42360;42.918;12.366;2024-03-02T02:13:28;3.30;;;3.00;;
56457;SDS011;42360;42.918;12.366;2024-03-02T02:15:53;3.70;;;2.50;;
56457;SDS011;42360;42.918;12.366;2024-03-02T02:18:18;3.60;;;2.92;;
56457;SDS011;42360;42.918;12.366;2024-03-02T02:20:44;2.83;;;2.60;;
56457;SDS011;42360;42.918;12.366;2024-03-02T02:23:09;3.17;;;2.78;;
56457;SDS011;42360;42.918;12.366;2024-03-02T02:25:35;3.63;;;2.78;;
56457;SDS011;42360;42.918;12.366;2024-03-02T02:28:01;4.03;;;3.50;;
56457;SDS011;42360;42.918;12.366;2024-03-02T02:30:30;3.33;;;2.75;;
56457;SDS011;42360;42.918;12.366;2024-03-02T02:32:56;2.85;;;2.42;;
56457;SDS011;42360;42.918;12.366;2024-03-02T02:35:22;2.97;;;2.47;;
56457;SDS011;42360;42.918;12.366;2024-03-02T02:37:49;2.97;;;2.67;;
56457;SDS011;42360;42.918;12.366;2024-03-02T02:40:15;3.83;;;3.38;;
56457;SDS011;42360;42.918;12.366;2024-03-02T02:42:40;4.07;;;3.15;;
56457;SDS011;42360;42.918;12.366;2024-03-02T02:45:06;3.75;;;3.10;;
56457;SDS011;42360;42.918;12.366;2024-03-02T02:47:32;3.72;;;2.90;;
56457;SDS011;42360;42.918;12.366;2024-03-02T02:50:03;3.75;;;2.80;;
56457;SDS011;42360;42.918;12.366;2024-03-02T02:52:33;3.22;;;2.63;;
56457;SDS011;42360;42.918;12.366;2024-03-02T02:55:00;3.28;;;2.97;;
56457;SDS011;42360;42.918;12.366;2024-03-02T02:57:27;4.38;;;2.90;;
56457;SDS011;42360;42.918;12.366;2024-03-02T02:59:55;3.65;;;3.00;;
56457;SDS011;42360;42.918;12.366;2024-03-02T03:02:20;3.63;;;2.63;;
56457;SDS011;42360;42.918;12.366;2024-03-02T03:04:46;3.67;;;2.70;;
56457;SDS011;42360;42.918;12.366;2024-03-02T03:07:11;2.92;;;2.63;;
56457;SDS011;42360;42.918;12.366;2024-03-02T03:09:37;3.22;;;2.60;;
56457;SDS011;42360;42.918;12.366;2024-03-02T03:12:03;3.50;;;2.90;;
56457;SDS011;42360;42.918;12.366;2024-03-02T03:14:29;2.67;;;2.47;;
56457;SDS011;42360;42.918;12.366;2024-03-02T03:16:54;2.90;;;2.60;;
56457;SDS011;42360;42.918;12.366;2024-03-02T03:19:20;2.90;;;2.60;;
56457;SDS011;42360;42.918;12.366;2024-03-02T03:21:45;2.75;;;2.45;;
56457;SDS011;42360;42.918;12.366;2024-03-02T03:24:11;3.40;;;2.22;;
56457;SDS011;42360;42.918;12.366;2024-03-02T03:26:36;3.65;;;2.50;;
56457;SDS011;42360;42.918;12.366;2024-03-02T03:29:02;3.20;;;2.90;;
56457;SDS011;42360;42.918;12.366;2024-03-02T03:31:27;3.30;;;2.70;;
56457;SDS011;42360;42.918;12.366;2024-03-02T03:33:54;3.38;;;3.00;;
56457;SDS011;42360;42.918;12.366;2024-03-02T03:36:22;3.58;;;2.65;;
56457;SDS011;42360;42.918;12.366;2024-03-02T03:38:48;3.42;;;2.72;;
56457;SDS011;42360;42.918;12.366;2024-03-02T03:41:13;4.00;;;2.40;;
56457;SDS011;42360;42.918;12.366;2024-03-02T03:43:39;3.13;;;2.55;;
56457;SDS011;42360;42.918;12.366;2024-03-02T03:46:04;3.05;;;2.78;;
56457;SDS011;42360;42.918;12.366;2024-03-02T03:48:30;3.08;;;2.50;;
56457;SDS011;42360;42.918;12.366;2024-03-02T03:50:56;3.45;;;2.28;;
56457;SDS011;42360;42.918;12.366;2024-03-02T03:53:22;2.90;;;2.60;;
56457;SDS011;42360;42.918;12.366;2024-03-02T03:55:47;3.00;;;2.63;;
56457;SDS011;42360;42.918;12.366;2024-03-02T03:58:14;3.58;;;2.65;;
56457;SDS011;42360;42.918;12.366;2024-03-02T04:00:41;2.50;;;2.30;;
56457;SDS011;42360;42.918;12.366;2024-03-02T04:03:07;3.47;;;2.80;;
56457;SDS011;42360;42.918;12.366;2024-03-02T04:05:32;3.42;;;2.88;;
56457;SDS011;42360;42.918;12.366;2024-03-02T04:07:58;3.25;;;2.95;;
56457;SDS011;42360;42.918;12.366;2024-03-02T04:10:25;3.25;;;2.55;;
56457;SDS011;42360;42.918;12.366;2024-03-02T04:12:50;4.80;;;3.70;;
56457;SDS011;42360;42.918;12.366;2024-03-02T04:15:15;5.05;;;3.72;;
56457;SDS011;42360;42.918;12.366;2024-03-02T04:17:41;4.13;;;3.72;;
56457;SDS011;42360;42.918;12.366;2024-03-02T04:20:07;3.42;;;2.88;;
56457;SDS011;42360;42.918;12.366;2024-03-02T04:22:33;4.10;;;3.47;;
56457;SDS011;42360;42.918;12.366;2024-03-02T04:25:00;4.00;;;3.25;;
56457;SDS011;42360;42.918;12.366;2024-03-02T04:27:25;6.10;;;3.80;;
56457;SDS011;42360;42.918;12.366;2024-03-02T04:29:51;4.85;;;4.30;;
56457;SDS011;42360;42.918;12.366;2024-03-02T04:32:16;5.63;;;4.10;;
56457;SDS011;42360;42.918;12.366;2024-03-02T04:34:42;4.00;;;3.42;;
56457;SDS011;42360;42.918;12.366;2024-03-02T04:37:08;3.95;;;3.00;;
56457;SDS011;42360;42.918;12.366;2024-03-02T04:39:34;3.55;;;3.25;;
56457;SDS011;42360;42.918;12.366;2024-03-02T04:42:00;4.88;;;3.55;;
56457;SDS011;42360;42.918;12.366;2024-03-02T04:44:26;3.88;;;3.00;;
56457;SDS011;42360;42.918;12.366;2024-03-02T04:46:51;3.60;;;2.85;;
56457;SDS011;42360;42.918;12.366;2024-03-02T04:49:17;3.92;;;2.80;;
56457;SDS011;42360;42.918;12.366;2024-03-02T04:51:42;3.38;;;2.70;;
56457;SDS011;42360;42.918;12.366;2024-03-02T04:54:07;4.47;;;2.55;;
56457;SDS011;42360;42.918;12.366;2024-03-02T04:56:33;3.35;;;2.85;;
56457;SDS011;42360;42.918;12.366;2024-03-02T04:59:04;3.58;;;3.08;;
56457;SDS011;42360;42.918;12.366;2024-03-02T05:01:30;4.47;;;3.28;;
56457;SDS011;42360;42.918;12.366;2024-03-02T05:03:55;4.07;;;3.00;;
56457;SDS011;42360;42.918;12.366;2024-03-02T05:06:21;4.30;;;3.42;;
56457;SDS011;42360;42.918;12.366;2024-03-02T05:08:47;3.30;;;3.00;;
56457;SDS011;42360;42.918;12.366;2024-03-02T05:11:13;4.32;;;3.00;;
56457;SDS011;42360;42.918;12.366;2024-03-02T05:14:07;3.63;;;2.87;;
56457;SDS011;42360;42.918;12.366;2024-03-02T05:16:33;4.35;;;3.22;;
56457;SDS011;42360;42.918;12.366;2024-03-02T05:18:59;4.97;;;3.45;;
56457;SDS011;42360;42.918;12.366;2024-03-02T05:21:25;3.13;;;2.83;;
56457;SDS011;42360;42.918;12.366;2024-03-02T05:23:50;3.63;;;3.08;;
56457;SDS011;42360;42.918;12.366;2024-03-02T05:26:16;4.10;;;3.30;;
56457;SDS011;42360;42.918;12.366;2024-03-02T05:28:41;4.93;;;3.67;;
56457;SDS011;42360;42.918;12.366;2024-03-02T05:31:10;4.55;;;3.85;;
56457;SDS011;42360;42.918;12.366;2024-03-02T05:33:37;5.30;;;3.83;;
56457;SDS011;42360;42.918;12.366;2024-03-02T05:36:03;4.28;;;3.30;;
56457;SDS011;42360;42.918;12.366;2024-03-02T05:38:29;4.68;;;3.13;;
56457;SDS011;42360;42.918;12.366;2024-03-02T05:40:55;4.15;;;3.03;;
56457;SDS011;42360;42.918;12.366;2024-03-02T05:43:20;5.15;;;3.47;;
56457;SDS011;42360;42.918;12.366;2024-03-02T05:45:46;4.35;;;3.22;;
56457;SDS011;42360;42.918;12.366;2024-03-02T05:48:11;5.20;;;3.55;;
56457;SDS011;42360;42.918;12.366;2024-03-02T05:50:37;3.88;;;3.17;;
56457;SDS011;42360;42.918;12.366;2024-03-02T05:53:02;3.97;;;3.22;;
56457;SDS011;42360;42.918;12.366;2024-03-02T05:55:28;6.35;;;4.45;;
56457;SDS011;42360;42.918;12.366;2024-03-02T05:57:53;5.22;;;4.72;;
56457;SDS011;42360;42.918;12.366;2024-03-02T06:00:45;5.03;;;4.53;;
56457;SDS011;42360;42.918;12.366;2024-03-02T06:03:10;5.68;;;4.45;;
56457;SDS011;42360;42.918;12.366;2024-03-02T06:05:36;6.15;;;5.13;;
56457;SDS011;42360;42.918;12.366;2024-03-02T06:08:01;5.57;;;4.47;;
56457;SDS011;42360;42.918;12.366;2024-03-02T06:10:27;6.75;;;4.63;;
56457;SDS011;42360;42.918;12.366;2024-03-02T06:12:52;6.32;;;4.43;;
56457;SDS011;42360;42.918;12.366;2024-03-02T06:15:17;5.78;;;4.82;;
56457;SDS011;42360;42.918;12.366;2024-03-02T06:17:43;5.45;;;4.35;;
56457;SDS011;42360;42.918;12.366;2024-03-02T06:20:09;6.90;;;5.03;;
56457;SDS011;42360;42.918;12.366;2024-03-02T06:22:35;6.85;;;5.07;;
56457;SDS011;42360;42.918;12.366;2024-03-02T06:25:00;5.97;;;4.80;;
56457;SDS011;42360;42.918;12.366;2024-03-02T06:27:26;6.15;;;4.50;;
56457;SDS011;42360;42.918;12.366;2024-03-02T06:29:51;8.05;;;4.88;;
56457;SDS011;42360;42.918;12.366;2024-03-02T06:32:17;5.15;;;4.57;;
56457;SDS011;42360;42.918;12.366;2024-03-02T06:34:42;6.50;;;4.53;;
56457;SDS011;42360;42.918;12.366;2024-03-02T06:37:08;7.40;;;5.40;;
56457;SDS011;42360;42.918;12.366;2024-03-02T06:39:33;7.00;;;4.85;;
56457;SDS011;42360;42.918;12.366;2024-03-02T06:41:59;6.63;;;5.32;;
56457;SDS011;42360;42.918;12.366;2024-03-02T06:44:25;7.03;;;5.10;;
56457;SDS011;42360;42.918;12.366;2024-03-02T06:46:51;8.38;;;5.22;;
56457;SDS011;42360;42.918;12.366;2024-03-02T06:49:16;6.55;;;4.30;;
56457;SDS011;42360;42.918;12.366;2024-03-02T06:51:43;7.63;;;5.63;;
56457;SDS011;42360;42.918;12.366;2024-03-02T06:54:09;9.35;;;6.22;;
56457;SDS011;42360;42.918;12.366;2024-03-02T06:56:35;12.43;;;7.85;;
56457;SDS011;42360;42.918;12.366;2024-03-02T06:59:00;14.68;;;9.90;;
56457;SDS011;42360;42.918;12.366;2024-03-02T07:01:26;9.30;;;6.63;;
56457;SDS011;42360;42.918;12.366;2024-03-02T07:03:53;10.88;;;6.95;;
56457;SDS011;42360;42.918;12.366;2024-03-02T07:06:18;8.80;;;6.20;;
56457;SDS011;42360;42.918;12.366;2024-03-02T07:08:44;9.40;;;7.03;;
56457;SDS011;42360;42.918;12.366;2024-03-02T07:11:09;8.45;;;6.28;;
56457;SDS011;42360;42.918;12.366;2024-03-02T07:13:34;9.50;;;5.78;;
56457;SDS011;42360;42.918;12.366;2024-03-02T07:16:00;7.93;;;5.30;;
56457;SDS011;42360;42.918;12.366;2024-03-02T07:18:32;6.50;;;5.65;;
56457;SDS011;42360;42.918;12.366;2024-03-02T07:20:58;6.10;;;5.50;;
56457;SDS011;42360;42.918;12.366;2024-03-02T07:23:26;9.13;;;6.47;;
56457;SDS011;42360;42.918;12.366;2024-03-02T07:25:52;7.38;;;5.25;;
56457;SDS011;42360;42.918;12.366;2024-03-02T07:28:22;6.68;;;5.32;;
56457;SDS011;42360;42.918;12.366;2024-03-02T07:30:57;9.93;;;5.65;;
56457;SDS011;42360;42.918;12.366;2024-03-02T07:33:26;6.78;;;4.93;;
56457;SDS011;42360;42.918;12.366;2024-03-02T07:35:51;6.45;;;5.25;;
56457;SDS011;42360;42.918;12.366;2024-03-02T07:38:17;6.70;;;5.80;;
56457;SDS011;42360;42.918;12.366;2024-03-02T07:40:42;6.97;;;5.43;;
56457;SDS011;42360;42.918;12.366;2024-03-02T07:43:08;7.38;;;5.57;;
56457;SDS011;42360;42.918;12.366;2024-03-02T07:45:34;7.80;;;5.65;;
56457;SDS011;42360;42.918;12.366;2024-03-02T07:48:01;7.68;;;5.32;;
56457;SDS011;42360;42.918;12.366;2024-03-02T07:50:29;7.07;;;6.00;;
56457;SDS011;42360;42.918;12.366;2024-03-02T07:52:55;9.05;;;6.45;;
56457;SDS011;42360;42.918;12.366;2024-03-02T07:55:21;9.52;;;6.28;;
56457;SDS011;42360;42.918;12.366;2024-03-02T07:57:46;8.38;;;6.22;;
56457;SDS011;42360;42.918;12.366;2024-03-02T08:00:12;6.18;;;5.03;;
56457;SDS011;42360;42.918;12.366;2024-03-02T08:02:37;9.63;;;6.03;;
56457;SDS011;42360;42.918;12.366;2024-03-02T08:05:03;7.47;;;5.43;;
56457;SDS011;42360;42.918;12.366;2024-03-02T08:07:29;7.38;;;5.53;;
56457;SDS011;42360;42.918;12.366;2024-03-02T08:09:54;8.15;;;5.65;;
56457;SDS011;42360;42.918;12.366;2024-03-02T08:12:20;5.03;;;4.55;;
56457;SDS011;42360;42.918;12.366;2024-03-02T08:14:48;7.47;;;5.07;;
56457;SDS011;42360;42.918;12.366;2024-03-02T08:17:14;5.57;;;4.38;;
56457;SDS011;42360;42.918;12.366;2024-03-02T08:19:39;8.55;;;5.80;;
56457;SDS011;42360;42.918;12.366;2024-03-02T08:22:05;7.53;;;4.60;;
56457;SDS011;42360;42.918;12.366;2024-03-02T08:24:30;6.40;;;3.90;;
56457;SDS011;42360;42.918;12.366;2024-03-02T08:26:56;8.05;;;5.03;;
56457;SDS011;42360;42.918;12.366;2024-03-02T08:29:23;4.07;;;3.03;;
56457;SDS011;42360;42.918;12.366;2024-03-02T08:31:48;6.07;;;3.92;;
56457;SDS011;42360;42.918;12.366;2024-03-02T08:34:14;3.08;;;2.60;;
56457;SDS011;42360;42.918;12.366;2024-03-02T08:36:39;1.73;;;1.05;;
56457;SDS011;42360;42.918;12.366;2024-03-02T08:39:05;5.53;;;3.88;;
56457;SDS011;42360;42.918;12.366;2024-03-02T08:41:32;2.28;;;2.03;;
56457;SDS011;42360;42.918;12.366;2024-03-02T08:43:58;3.17;;;2.90;;
56457;SDS011;42360;42.918;12.366;2024-03-02T08:46:23;2.40;;;2.17;;
56457;SDS011;42360;42.918;12.366;2024-03-02T08:48:49;3.28;;;2.95;;
56457;SDS011;42360;42.918;12.366;2024-03-02T08:51:14;4.90;;;4.22;;
56457;SDS011;42360;42.918;12.366;2024-03-02T08:53:40;2.00;;;1.85;;
56457;SDS011;42360;42.918;12.366;2024-03-02T08:56:05;6.85;;;3.75;;
56457;SDS011;42360;42.918;12.366;2024-03-02T08:58:31;3.38;;;2.67;;
56457;SDS011;42360;42.918;12.366;2024-03-02T09:00:57;8.18;;;6.07;;
56457;SDS011;42360;42.918;12.366;2024-03-02T09:03:22;3.83;;;2.67;;
56457;SDS011;42360;42.918;12.366;2024-03-02T09:05:48;5.97;;;4.78;;
56457;SDS011;42360;42.918;12.366;2024-03-02T09:08:13;2.65;;;1.73;;
56457;SDS011;42360;42.918;12.366;2024-03-02T09:10:39;5.53;;;2.70;;
56457;SDS011;42360;42.918;12.366;2024-03-02T09:13:05;3.53;;;2.35;;
56457;SDS011;42360;42.918;12.366;2024-03-02T09:15:30;2.63;;;2.40;;
56457;SDS011;42360;42.918;12.366;2024-03-02T09:17:56;4.13;;;1.92;;
56457;SDS011;42360;42.918;12.366;2024-03-02T09:20:21;8.60;;;2.10;;
56457;SDS011;42360;42.918;12.366;2024-03-02T09:22:47;1.55;;;1.38;;
56457;SDS011;42360;42.918;12.366;2024-03-02T09:25:13;5.50;;;4.10;;
56457;SDS011;42360;42.918;12.366;2024-03-02T09:27:39;4.30;;;3.33;;
56457;SDS011;42360;42.918;12.366;2024-03-02T09:30:07;3.80;;;3.25;;
56457;SDS011;42360;42.918;12.366;2024-03-02T09:32:33;4.63;;;2.60;;
56457;SDS011;42360;42.918;12.366;2024-03-02T09:34:58;2.40;;;2.20;;
56457;SDS011;42360;42.918;12.366;2024-03-02T09:37:24;2.50;;;1.98;;
56457;SDS011;42360;42.918;12.366;2024-03-02T09:39:49;3.10;;;2.80;;
56457;SDS011;42360;42.918;12.366;2024-03-02T09:42:15;3.58;;;2.88;;
56457;SDS011;42360;42.918;12.366;2024-03-02T09:44:40;1.90;;;1.38;;
56457;SDS011;42360;42.918;12.366;2024-03-02T09:47:07;2.60;;;2.38;;
56457;SDS011;42360;42.918;12.366;2024-03-02T09:49:33;3.05;;;1.63;;
56457;SDS011;42360;42.918;12.366;2024-03-02T09:51:59;2.92;;;2.58;;
56457;SDS011;42360;42.918;12.366;2024-03-02T09:54:25;2.72;;;2.13;;
56457;SDS011;42360;42.918;12.366;2024-03-02T09:56:51;2.70;;;1.90;;
56457;SDS011;42360;42.918;12.366;2024-03-02T09:59:16;3.45;;;2.88;;
56457;SDS011;42360;42.918;12.366;2024-03-02T10:04:25;8.10;;;6.13;;
56457;SDS011;42360;42.918;12.366;2024-03-02T10:06:51;3.58;;;2.83;;
56457;SDS011;42360;42.918;12.366;2024-03-02T10:09:29;3.28;;;2.08;;
56457;SDS011;42360;42.918;12.366;2024-03-02T10:12:01;2.03;;;1.92;;
56457;SDS011;42360;42.918;12.366;2024-03-02T10:14:29;3.40;;;2.15;;
56457;SDS011;42360;42.918;12.366;2024-03-02T10:16:54;1.98;;;1.85;;
56457;SDS011;42360;42.918;12.366;2024-03-02T10:19:27;2.83;;;2.30;;
56457;SDS011;42360;42.918;12.366;2024-03-02T10:21:57;2.20;;;1.48;;
56457;SDS011;42360;42.918;12.366;2024-03-02T10:24:23;4.32;;;2.10;;
56457;SDS011;42360;42.918;12.366;2024-03-02T10:26:49;2.22;;;2.03;;
56457;SDS011;42360;42.918;12.366;2024-03-02T10:29:15;2.65;;;2.45;;
56457;SDS011;42360;42.918;12.366;2024-03-02T10:31:41;2.67;;;1.35;;
56457;SDS011;42360;42.918;12.366;2024-03-02T10:34:09;1.30;;;1.20;;
56457;SDS011;42360;42.918;12.366;2024-03-02T10:36:35;1.95;;;1.30;;
56457;SDS011;42360;42.918;12.366;2024-03-02T10:39:05;2.03;;;1.35;;
56457;SDS011;42360;42.918;12.366;2024-03-02T10:41:35;2.63;;;1.60;;
56457;SDS011;42360;42.918;12.366;2024-03-02T10:44:02;2.80;;;1.90;;
56457;SDS011;42360;42.918;12.366;2024-03-02T10:46:29;6.88;;;5.85;;
56457;SDS011;42360;42.918;12.366;2024-03-02T10:48:56;6.30;;;4.43;;
56457;SDS011;42360;42.918;12.366;2024-03-02T10:51:24;3.45;;;2.58;;
56457;SDS011;42360;42.918;12.366;2024-03-02T10:53:51;1.92;;;1.73;;
56457;SDS011;42360;42.918;12.366;2024-03-02T10:56:20;2.25;;;1.60;;
56457;SDS011;42360;42.918;12.366;2024-03-02T10:58:51;7.03;;;3.78;;
56457;SDS011;42360;42.918;12.366;2024-03-02T11:01:23;2.33;;;2.13;;
56457;SDS011;42360;42.918;12.366;2024-03-02T11:03:50;6.82;;;3.30;;
56457;SDS011;42360;42.918;12.366;2024-03-02T11:06:15;3.85;;;2.65;;
56457;SDS011;42360;42.918;12.366;2024-03-02T11:08:41;3.83;;;2.08;;
56457;SDS011;42360;42.918;12.366;2024-03-02T11:11:14;3.35;;;2.05;;
56457;SDS011;42360;42.918;12.366;2024-03-02T11:13:42;8.48;;;5.57;;
56457;SDS011;42360;42.918;12.366;2024-03-02T11:16:15;6.80;;;4.25;;
56457;SDS011;42360;42.918;12.366;2024-03-02T11:18:46;2.45;;;2.05;;
56457;SDS011;42360;42.918;12.366;2024-03-02T11:21:12;9.60;;;4.63;;
56457;SDS011;42360;42.918;12.366;2024-03-02T11:23:38;3.55;;;2.72;;
56457;SDS011;42360;42.918;12.366;2024-03-02T11:26:16;3.55;;;2.60;;
56457;SDS011;42360;42.918;12.366;2024-03-02T11:31:11;1.52;;;1.27;;
56457;SDS011;42360;42.918;12.366;2024-03-02T11:33:36;1.35;;;1.25;;
56457;SDS011;42360;42.918;12.366;2024-03-02T11:36:02;3.60;;;1.83;;
56457;SDS011;42360;42.918;12.366;2024-03-02T11:38:29;3.67;;;1.85;;
56457;SDS011;42360;42.918;12.366;2024-03-02T11:40:59;3.15;;;1.20;;
56457;SDS011;42360;42.918;12.366;2024-03-02T11:43:28;3.50;;;1.60;;
56457;SDS011;42360;42.918;12.366;2024-03-02T11:45:57;2.72;;;1.13;;
56457;SDS011;42360;42.918;12.366;2024-03-02T11:48:24;2.72;;;1.33;;
56457;SDS011;42360;42.918;12.366;2024-03-02T11:50:50;2.05;;;0.85;;
56457;SDS011;42360;42.918;12.366;2024-03-02T11:53:16;1.98;;;1.00;;
56457;SDS011;42360;42.918;12.366;2024-03-02T11:55:43;1.80;;;0.80;;
56457;SDS011;42360;42.918;12.366;2024-03-02T11:58:11;5.97;;;2.88;;
56457;SDS011;42360;42.918;12.366;2024-03-02T12:00:37;4.32;;;2.47;;
56457;SDS011;42360;42.918;12.366;2024-03-02T12:05:31;3.67;;;2.30;;
56457;SDS011;42360;42.918;12.366;2024-03-02T12:07:58;3.00;;;1.48;;
56457;SDS011;42360;42.918;12.366;2024-03-02T12:10:25;12.13;;;7.40;;
56457;SDS011;42360;42.918;12.366;2024-03-02T12:13:00;17.63;;;10.75;;
56457;SDS011;42360;42.918;12.366;2024-03-02T12:15:28;5.80;;;2.90;;
56457;SDS011;42360;42.918;12.366;2024-03-02T12:17:59;10.82;;;5.25;;
56457;SDS011;42360;42.918;12.366;2024-03-02T12:20:26;11.63;;;6.30;;
56457;SDS011;42360;42.918;12.366;2024-03-02T12:22:54;4.22;;;2.25;;
56457;SDS011;42360;42.918;12.366;2024-03-02T12:25:20;2.15;;;1.92;;
56457;SDS011;42360;42.918;12.366;2024-03-02T12:27:47;3.97;;;2.55;;
56457;SDS011;42360;42.918;12.366;2024-03-02T12:30:15;5.75;;;3.00;;
56457;SDS011;42360;42.918;12.366;2024-03-02T12:32:41;0.45;;;0.45;;
56457;SDS011;42360;42.918;12.366;2024-03-02T12:35:07;2.05;;;1.33;;
56457;SDS011;42360;42.918;12.366;2024-03-02T12:37:33;3.08;;;1.58;;
56457;SDS011;42360;42.918;12.366;2024-03-02T12:39:58;3.15;;;2.15;;
56457;SDS011;42360;42.918;12.366;2024-03-02T12:42:24;2.75;;;2.00;;
56457;SDS011;42360;42.918;12.366;2024-03-02T12:44:53;3.80;;;2.15;;
56457;SDS011;42360;42.918;12.366;2024-03-02T12:47:21;3.58;;;2.83;;
56457;SDS011;42360;42.918;12.366;2024-03-02T12:49:46;4.55;;;2.00;;
56457;SDS011;42360;42.918;12.366;2024-03-02T12:52:13;7.65;;;2.38;;
56457;SDS011;42360;42.918;12.366;2024-03-02T12:54:38;7.43;;;4.07;;
56457;SDS011;42360;42.918;12.366;2024-03-02T12:57:04;7.13;;;5.25;;
56457;SDS011;42360;42.918;12.366;2024-03-02T12:59:29;4.82;;;3.15;;
56457;SDS011;42360;42.918;12.366;2024-03-02T13:01:56;5.68;;;3.67;;
56457;SDS011;42360;42.918;12.366;2024-03-02T13:04:26;8.35;;;4.18;;
56457;SDS011;42360;42.918;12.366;2024-03-02T13:06:56;4.07;;;1.65;;
56457;SDS011;42360;42.918;12.366;2024-03-02T13:09:25;7.13;;;3.50;;
56457;SDS011;42360;42.918;12.366;2024-03-02T13:11:50;1.98;;;1.00;;
56457;SDS011;42360;42.918;12.366;2024-03-02T13:14:16;2.05;;;1.20;;
56457;SDS011;42360;42.918;12.366;2024-03-02T13:16:41;4.95;;;2.03;;
56457;SDS011;42360;42.918;12.366;2024-03-02T13:19:17;2.50;;;2.00;;
56457;SDS011;42360;42.918;12.366;2024-03-02T13:21:44;2.33;;;1.77;;
56457;SDS011;42360;42.918;12.366;2024-03-02T13:24:09;1.10;;;1.00;;
56457;SDS011;42360;42.918;12.366;2024-03-02T13:26:35;1.90;;;1.08;;
56457;SDS011;42360;42.918;12.366;2024-03-02T13:29:01;1.67;;;1.35;;
56457;SDS011;42360;42.918;12.366;2024-03-02T13:31:26;2.13;;;1.23;;
56457;SDS011;42360;42.918;12.366;2024-03-02T13:33:52;0.77;;;0.60;;
56457;SDS011;42360;42.918;12.366;2024-03-02T13:36:17;2.42;;;1.23;;
56457;SDS011;42360;42.918;12.366;2024-03-02T13:38:44;2.38;;;1.05;;
56457;SDS011;42360;42.918;12.366;2024-03-02T13:41:09;2.53;;;1.63;;
56457;SDS011;42360;42.918;12.366;2024-03-02T13:43:36;0.75;;;0.75;;
56457;SDS011;42360;42.918;12.366;2024-03-02T13:46:03;2.17;;;1.50;;
56457;SDS011;42360;42.918;12.366;2024-03-02T13:48:29;1.15;;;1.00;;
56457;SDS011;42360;42.918;12.366;2024-03-02T13:50:55;1.67;;;0.85;;
56457;SDS011;42360;42.918;12.366;2024-03-02T13:53:21;2.08;;;0.90;;
56457;SDS011;42360;42.918;12.366;2024-03-02T13:55:46;2.33;;;1.33;;
56457;SDS011;42360;42.918;12.366;2024-03-02T13:58:12;1.23;;;1.10;;
56457;SDS011;42360;42.918;12.366;2024-03-02T14:00:38;0.73;;;0.52;;
56457;SDS011;42360;42.918;12.366;2024-03-02T14:03:05;4.38;;;2.15;;
56457;SDS011;42360;42.918;12.366;2024-03-02T14:05:32;6.90;;;2.53;;
56457;SDS011;42360;42.918;12.366;2024-03-02T14:07:58;4.05;;;2.97;;
56457;SDS011;42360;42.918;12.366;2024-03-02T14:10:25;3.33;;;1.38;;
56457;SDS011;42360;42.918;12.366;2024-03-02T14:12:50;3.60;;;2.50;;
56457;SDS011;42360;42.918;12.366;2024-03-02T14:15:16;0.73;;;0.70;;
56457;SDS011;42360;42.918;12.366;2024-03-02T14:17:41;5.65;;;1.20;;
56457;SDS011;42360;42.918;12.366;2024-03-02T14:20:08;7.88;;;4.35;;
56457;SDS011;42360;42.918;12.366;2024-03-02T14:22:36;1.10;;;0.70;;
56457;SDS011;42360;42.918;12.366;2024-03-02T14:25:02;3.15;;;0.85;;
56457;SDS011;42360;42.918;12.366;2024-03-02T14:27:28;2.15;;;1.13;;
56457;SDS011;42360;42.918;12.366;2024-03-02T14:29:54;1.33;;;1.08;;
56457;SDS011;42360;42.918;12.366;2024-03-02T14:32:19;3.50;;;1.00;;
56457;SDS011;42360;42.918;12.366;2024-03-02T14:34:45;1.15;;;0.80;;
56457;SDS011;42360;42.918;12.366;2024-03-02T14:37:12;1.02;;;0.82;;
56457;SDS011;42360;42.918;12.366;2024-03-02T14:39:38;3.40;;;1.15;;
56457;SDS011;42360;42.918;12.366;2024-03-02T14:42:04;2.92;;;1.02;;